sensor_id;sensor_type;location;lat;lon;timestamp;P1;durP1;ratioP1;P2;durP2;ratioP2
21697;SDS011;11010;49.548;11.926;2022-10-16T00:00:02;5.53;;;1.30;;
21697;SDS011;11010;49.548;11.926;2022-10-16T00:02:30;5.33;;;1.47;;
21697;SDS011;11010;49.548;11.926;2022-10-16T00:04:57;6.10;;;1.50;;
21697;SDS011;11010;49.548;11.926;2022-10-16T00:07:25;6.00;;;1.63;;
21697;SDS011;11010;49.548;11.926;2022-10-16T00:09:54;5.37;;;1.60;;
21697;SDS011;11010;49.548;11.926;2022-10-16T00:12:21;6.23;;;1.30;;
21697;SDS011;11010;49.548;11.926;2022-10-16T00:14:49;5.93;;;1.30;;
21697;SDS011;11010;49.548;11.926;2022-10-16T00:17:16;7.63;;;1.40;;
21697;SDS011;11010;49.548;11.926;2022-10-16T00:19:44;5.93;;;1.73;;
21697;SDS011;11010;49.548;11.926;2022-10-16T00:22:11;7.70;;;1.47;;
21697;SDS011;11010;49.548;11.926;2022-10-16T00:24:38;6.60;;;1.57;;
21697;SDS011;11010;49.548;11.926;2022-10-16T00:27:06;7.43;;;1.50;;
21697;SDS011;11010;49.548;11.926;2022-10-16T00:29:33;4.90;;;1.40;;
21697;SDS011;11010;49.548;11.926;2022-10-16T00:32:01;6.10;;;1.40;;
21697;SDS011;11010;49.548;11.926;2022-10-16T00:34:28;4.50;;;1.33;;
21697;SDS011;11010;49.548;11.926;2022-10-16T00:36:56;5.00;;;1.30;;
21697;SDS011;11010;49.548;11.926;2022-10-16T00:39:23;6.57;;;1.40;;
21697;SDS011;11010;49.548;11.926;2022-10-16T00:41:51;6.27;;;1.60;;
21697;SDS011;11010;49.548;11.926;2022-10-16T00:47:04;5.90;;;1.40;;
21697;SDS011;11010;49.548;11.926;2022-10-16T00:49:31;6.37;;;1.47;;
21697;SDS011;11010;49.548;11.926;2022-10-16T00:51:59;6.00;;;1.50;;
21697;SDS011;11010;49.548;11.926;2022-10-16T00:54:27;5.40;;;1.60;;
21697;SDS011;11010;49.548;11.926;2022-10-16T00:56:56;5.90;;;1.50;;
21697;SDS011;11010;49.548;11.926;2022-10-16T00:59:32;6.17;;;1.50;;
21697;SDS011;11010;49.548;11.926;2022-10-16T01:01:59;7.67;;;1.63;;
21697;SDS011;11010;49.548;11.926;2022-10-16T01:04:28;5.23;;;1.60;;
21697;SDS011;11010;49.548;11.926;2022-10-16T01:07:04;5.60;;;1.57;;
21697;SDS011;11010;49.548;11.926;2022-10-16T01:17:12;6.30;;;1.47;;
21697;SDS011;11010;49.548;11.926;2022-10-16T01:22:33;6.60;;;1.70;;
21697;SDS011;11010;49.548;11.926;2022-10-16T01:25:05;5.33;;;1.50;;
21697;SDS011;11010;49.548;11.926;2022-10-16T01:27:36;5.73;;;1.60;;
21697;SDS011;11010;49.548;11.926;2022-10-16T01:30:07;6.90;;;1.60;;
21697;SDS011;11010;49.548;11.926;2022-10-16T01:32:41;8.40;;;1.73;;
21697;SDS011;11010;49.548;11.926;2022-10-16T01:38:15;5.43;;;1.60;;
21697;SDS011;11010;49.548;11.926;2022-10-16T01:40:33;7.53;;;1.70;;
21697;SDS011;11010;49.548;11.926;2022-10-16T01:43:05;6.50;;;1.63;;
21697;SDS011;11010;49.548;11.926;2022-10-16T01:45:33;7.20;;;1.90;;
21697;SDS011;11010;49.548;11.926;2022-10-16T01:48:02;5.80;;;1.80;;
21697;SDS011;11010;49.548;11.926;2022-10-16T01:50:32;6.20;;;1.80;;
21697;SDS011;11010;49.548;11.926;2022-10-16T01:53:01;8.77;;;1.80;;
21697;SDS011;11010;49.548;11.926;2022-10-16T01:55:31;7.13;;;1.93;;
21697;SDS011;11010;49.548;11.926;2022-10-16T01:57:59;8.53;;;2.00;;
21697;SDS011;11010;49.548;11.926;2022-10-16T02:00:28;6.73;;;1.93;;
21697;SDS011;11010;49.548;11.926;2022-10-16T02:02:56;6.03;;;1.67;;
21697;SDS011;11010;49.548;11.926;2022-10-16T02:05:29;6.77;;;2.20;;
21697;SDS011;11010;49.548;11.926;2022-10-16T02:07:58;7.30;;;2.10;;
21697;SDS011;11010;49.548;11.926;2022-10-16T02:10:30;6.70;;;1.80;;
21697;SDS011;11010;49.548;11.926;2022-10-16T02:12:59;7.77;;;1.93;;
21697;SDS011;11010;49.548;11.926;2022-10-16T02:15:28;6.10;;;1.70;;
21697;SDS011;11010;49.548;11.926;2022-10-16T02:17:55;7.20;;;2.10;;
21697;SDS011;11010;49.548;11.926;2022-10-16T02:20:25;6.63;;;1.73;;
21697;SDS011;11010;49.548;11.926;2022-10-16T02:22:53;6.63;;;1.70;;
21697;SDS011;11010;49.548;11.926;2022-10-16T02:27:59;5.43;;;1.50;;
21697;SDS011;11010;49.548;11.926;2022-10-16T02:30:39;6.60;;;1.67;;
21697;SDS011;11010;49.548;11.926;2022-10-16T02:33:09;9.90;;;1.90;;
21697;SDS011;11010;49.548;11.926;2022-10-16T02:35:37;6.60;;;1.90;;
21697;SDS011;11010;49.548;11.926;2022-10-16T02:38:05;7.57;;;2.37;;
21697;SDS011;11010;49.548;11.926;2022-10-16T02:40:33;6.13;;;1.90;;
21697;SDS011;11010;49.548;11.926;2022-10-16T02:43:02;6.00;;;1.80;;
21697;SDS011;11010;49.548;11.926;2022-10-16T02:45:30;6.50;;;1.90;;
21697;SDS011;11010;49.548;11.926;2022-10-16T02:47:57;5.40;;;1.70;;
21697;SDS011;11010;49.548;11.926;2022-10-16T02:50:25;7.43;;;2.00;;
21697;SDS011;11010;49.548;11.926;2022-10-16T02:52:52;6.37;;;1.67;;
21697;SDS011;11010;49.548;11.926;2022-10-16T02:55:20;8.73;;;2.03;;
21697;SDS011;11010;49.548;11.926;2022-10-16T02:57:48;6.60;;;2.00;;
21697;SDS011;11010;49.548;11.926;2022-10-16T03:00:16;6.27;;;1.80;;
21697;SDS011;11010;49.548;11.926;2022-10-16T03:02:44;7.20;;;1.87;;
21697;SDS011;11010;49.548;11.926;2022-10-16T03:05:11;6.17;;;1.80;;
21697;SDS011;11010;49.548;11.926;2022-10-16T03:07:39;6.93;;;1.97;;
21697;SDS011;11010;49.548;11.926;2022-10-16T03:10:06;5.93;;;1.73;;
21697;SDS011;11010;49.548;11.926;2022-10-16T03:12:34;6.30;;;1.90;;
21697;SDS011;11010;49.548;11.926;2022-10-16T03:15:01;6.20;;;1.80;;
21697;SDS011;11010;49.548;11.926;2022-10-16T03:17:29;6.57;;;1.60;;
21697;SDS011;11010;49.548;11.926;2022-10-16T03:19:56;6.07;;;1.70;;
21697;SDS011;11010;49.548;11.926;2022-10-16T03:22:24;5.73;;;1.63;;
21697;SDS011;11010;49.548;11.926;2022-10-16T03:24:51;5.67;;;1.73;;
21697;SDS011;11010;49.548;11.926;2022-10-16T03:27:19;7.33;;;1.90;;
21697;SDS011;11010;49.548;11.926;2022-10-16T03:29:46;6.30;;;1.70;;
21697;SDS011;11010;49.548;11.926;2022-10-16T03:32:13;9.53;;;2.33;;
21697;SDS011;11010;49.548;11.926;2022-10-16T03:34:41;6.40;;;1.63;;
21697;SDS011;11010;49.548;11.926;2022-10-16T03:37:08;6.43;;;1.70;;
21697;SDS011;11010;49.548;11.926;2022-10-16T03:39:36;6.17;;;1.70;;
21697;SDS011;11010;49.548;11.926;2022-10-16T03:42:03;6.20;;;1.80;;
21697;SDS011;11010;49.548;11.926;2022-10-16T03:44:31;7.70;;;1.80;;
21697;SDS011;11010;49.548;11.926;2022-10-16T03:46:58;6.73;;;1.80;;
21697;SDS011;11010;49.548;11.926;2022-10-16T03:49:25;7.10;;;1.83;;
21697;SDS011;11010;49.548;11.926;2022-10-16T03:51:53;5.53;;;1.40;;
21697;SDS011;11010;49.548;11.926;2022-10-16T03:54:20;5.50;;;1.60;;
21697;SDS011;11010;49.548;11.926;2022-10-16T03:56:48;5.70;;;1.80;;
21697;SDS011;11010;49.548;11.926;2022-10-16T03:59:15;6.80;;;1.70;;
21697;SDS011;11010;49.548;11.926;2022-10-16T04:01:43;6.97;;;1.97;;
21697;SDS011;11010;49.548;11.926;2022-10-16T04:04:10;7.07;;;1.60;;
21697;SDS011;11010;49.548;11.926;2022-10-16T04:06:38;6.73;;;1.87;;
21697;SDS011;11010;49.548;11.926;2022-10-16T04:09:05;8.17;;;1.90;;
21697;SDS011;11010;49.548;11.926;2022-10-16T04:11:33;6.30;;;1.70;;
21697;SDS011;11010;49.548;11.926;2022-10-16T04:14:00;9.43;;;1.97;;
21697;SDS011;11010;49.548;11.926;2022-10-16T04:16:27;7.13;;;1.90;;
21697;SDS011;11010;49.548;11.926;2022-10-16T04:18:55;5.87;;;1.70;;
21697;SDS011;11010;49.548;11.926;2022-10-16T04:21:22;6.67;;;1.83;;
21697;SDS011;11010;49.548;11.926;2022-10-16T04:23:50;6.53;;;1.90;;
21697;SDS011;11010;49.548;11.926;2022-10-16T04:26:17;6.80;;;2.20;;
21697;SDS011;11010;49.548;11.926;2022-10-16T04:28:44;9.70;;;2.13;;
21697;SDS011;11010;49.548;11.926;2022-10-16T04:31:12;8.30;;;2.20;;
21697;SDS011;11010;49.548;11.926;2022-10-16T04:33:41;8.60;;;2.20;;
21697;SDS011;11010;49.548;11.926;2022-10-16T04:36:09;11.50;;;2.00;;
21697;SDS011;11010;49.548;11.926;2022-10-16T04:38:36;7.07;;;1.93;;
21697;SDS011;11010;49.548;11.926;2022-10-16T04:41:06;6.30;;;1.80;;
21697;SDS011;11010;49.548;11.926;2022-10-16T04:43:34;7.80;;;2.00;;
21697;SDS011;11010;49.548;11.926;2022-10-16T04:46:01;6.37;;;1.53;;
21697;SDS011;11010;49.548;11.926;2022-10-16T04:48:31;6.90;;;2.00;;
21697;SDS011;11010;49.548;11.926;2022-10-16T04:50:59;7.90;;;2.00;;
21697;SDS011;11010;49.548;11.926;2022-10-16T04:53:26;8.63;;;2.10;;
21697;SDS011;11010;49.548;11.926;2022-10-16T04:55:53;7.90;;;2.00;;
21697;SDS011;11010;49.548;11.926;2022-10-16T04:58:22;5.40;;;1.70;;
21697;SDS011;11010;49.548;11.926;2022-10-16T05:00:49;6.20;;;1.80;;
21697;SDS011;11010;49.548;11.926;2022-10-16T05:03:17;6.40;;;1.97;;
21697;SDS011;11010;49.548;11.926;2022-10-16T05:05:45;6.97;;;1.90;;
21697;SDS011;11010;49.548;11.926;2022-10-16T05:08:13;6.07;;;1.80;;
21697;SDS011;11010;49.548;11.926;2022-10-16T05:10:41;7.80;;;1.80;;
21697;SDS011;11010;49.548;11.926;2022-10-16T05:13:08;7.07;;;1.80;;
21697;SDS011;11010;49.548;11.926;2022-10-16T05:15:36;5.93;;;1.70;;
21697;SDS011;11010;49.548;11.926;2022-10-16T05:18:03;6.53;;;1.70;;
21697;SDS011;11010;49.548;11.926;2022-10-16T05:20:31;6.20;;;1.80;;
21697;SDS011;11010;49.548;11.926;2022-10-16T05:22:58;6.27;;;1.90;;
21697;SDS011;11010;49.548;11.926;2022-10-16T05:25:26;6.40;;;1.90;;
21697;SDS011;11010;49.548;11.926;2022-10-16T05:27:53;7.03;;;2.23;;
21697;SDS011;11010;49.548;11.926;2022-10-16T05:30:20;6.90;;;2.10;;
21697;SDS011;11010;49.548;11.926;2022-10-16T05:32:48;6.20;;;2.10;;
21697;SDS011;11010;49.548;11.926;2022-10-16T05:35:16;6.97;;;2.23;;
21697;SDS011;11010;49.548;11.926;2022-10-16T05:37:44;7.07;;;2.00;;
21697;SDS011;11010;49.548;11.926;2022-10-16T05:40:11;8.40;;;2.10;;
21697;SDS011;11010;49.548;11.926;2022-10-16T05:42:39;7.97;;;2.33;;
21697;SDS011;11010;49.548;11.926;2022-10-16T05:45:07;6.40;;;2.10;;
21697;SDS011;11010;49.548;11.926;2022-10-16T05:47:36;7.30;;;2.10;;
21697;SDS011;11010;49.548;11.926;2022-10-16T05:50:04;8.30;;;2.20;;
21697;SDS011;11010;49.548;11.926;2022-10-16T05:52:31;6.77;;;2.20;;
21697;SDS011;11010;49.548;11.926;2022-10-16T05:54:59;7.67;;;2.17;;
21697;SDS011;11010;49.548;11.926;2022-10-16T05:57:26;7.40;;;2.37;;
21697;SDS011;11010;49.548;11.926;2022-10-16T05:59:54;7.30;;;2.30;;
21697;SDS011;11010;49.548;11.926;2022-10-16T06:02:22;7.10;;;2.20;;
21697;SDS011;11010;49.548;11.926;2022-10-16T06:04:51;8.00;;;2.20;;
21697;SDS011;11010;49.548;11.926;2022-10-16T06:07:20;6.30;;;2.20;;
21697;SDS011;11010;49.548;11.926;2022-10-16T06:09:51;6.03;;;2.10;;
21697;SDS011;11010;49.548;11.926;2022-10-16T06:12:18;8.17;;;2.27;;
21697;SDS011;11010;49.548;11.926;2022-10-16T06:14:46;7.00;;;1.97;;
21697;SDS011;11010;49.548;11.926;2022-10-16T06:17:13;7.87;;;2.13;;
21697;SDS011;11010;49.548;11.926;2022-10-16T06:19:41;6.37;;;2.10;;
21697;SDS011;11010;49.548;11.926;2022-10-16T06:22:08;7.27;;;2.00;;
21697;SDS011;11010;49.548;11.926;2022-10-16T06:24:36;7.70;;;2.00;;
21697;SDS011;11010;49.548;11.926;2022-10-16T06:27:03;7.70;;;2.30;;
21697;SDS011;11010;49.548;11.926;2022-10-16T06:29:31;8.10;;;1.90;;
21697;SDS011;11010;49.548;11.926;2022-10-16T06:31:58;6.60;;;1.93;;
21697;SDS011;11010;49.548;11.926;2022-10-16T06:34:26;6.30;;;2.10;;
21697;SDS011;11010;49.548;11.926;2022-10-16T06:36:53;5.90;;;1.90;;
21697;SDS011;11010;49.548;11.926;2022-10-16T06:39:21;6.00;;;1.90;;
21697;SDS011;11010;49.548;11.926;2022-10-16T06:41:49;8.60;;;2.10;;
21697;SDS011;11010;49.548;11.926;2022-10-16T06:44:16;8.17;;;2.00;;
21697;SDS011;11010;49.548;11.926;2022-10-16T06:46:44;6.70;;;1.80;;
21697;SDS011;11010;49.548;11.926;2022-10-16T06:49:11;7.50;;;2.10;;
21697;SDS011;11010;49.548;11.926;2022-10-16T06:51:38;8.10;;;2.10;;
21697;SDS011;11010;49.548;11.926;2022-10-16T06:54:09;7.47;;;1.90;;
21697;SDS011;11010;49.548;11.926;2022-10-16T06:56:36;8.07;;;1.87;;
21697;SDS011;11010;49.548;11.926;2022-10-16T06:59:04;8.03;;;2.03;;
21697;SDS011;11010;49.548;11.926;2022-10-16T07:01:31;7.27;;;1.90;;
21697;SDS011;11010;49.548;11.926;2022-10-16T07:04:00;7.03;;;2.00;;
21697;SDS011;11010;49.548;11.926;2022-10-16T07:06:30;6.03;;;1.97;;
21697;SDS011;11010;49.548;11.926;2022-10-16T07:08:58;9.63;;;2.23;;
21697;SDS011;11010;49.548;11.926;2022-10-16T07:11:25;7.33;;;2.20;;
21697;SDS011;11010;49.548;11.926;2022-10-16T07:13:53;8.37;;;2.20;;
21697;SDS011;11010;49.548;11.926;2022-10-16T07:16:22;6.80;;;2.27;;
21697;SDS011;11010;49.548;11.926;2022-10-16T07:18:50;6.80;;;2.00;;
21697;SDS011;11010;49.548;11.926;2022-10-16T07:21:24;6.60;;;2.00;;
21697;SDS011;11010;49.548;11.926;2022-10-16T07:23:56;7.33;;;2.10;;
21697;SDS011;11010;49.548;11.926;2022-10-16T07:26:23;6.93;;;2.30;;
21697;SDS011;11010;49.548;11.926;2022-10-16T07:28:51;6.13;;;1.93;;
21697;SDS011;11010;49.548;11.926;2022-10-16T07:31:19;7.63;;;2.20;;
21697;SDS011;11010;49.548;11.926;2022-10-16T07:33:47;8.53;;;2.07;;
21697;SDS011;11010;49.548;11.926;2022-10-16T07:36:16;6.50;;;1.90;;
21697;SDS011;11010;49.548;11.926;2022-10-16T07:38:44;9.60;;;2.00;;
21697;SDS011;11010;49.548;11.926;2022-10-16T07:41:15;8.70;;;2.20;;
21697;SDS011;11010;49.548;11.926;2022-10-16T07:43:47;9.07;;;1.90;;
21697;SDS011;11010;49.548;11.926;2022-10-16T07:46:15;6.47;;;1.90;;
21697;SDS011;11010;49.548;11.926;2022-10-16T07:48:43;6.00;;;1.87;;
21697;SDS011;11010;49.548;11.926;2022-10-16T07:51:14;6.47;;;1.80;;
21697;SDS011;11010;49.548;11.926;2022-10-16T07:53:41;6.43;;;1.90;;
21697;SDS011;11010;49.548;11.926;2022-10-16T07:56:09;7.47;;;2.10;;
21697;SDS011;11010;49.548;11.926;2022-10-16T07:58:38;6.80;;;1.80;;
21697;SDS011;11010;49.548;11.926;2022-10-16T08:01:07;6.17;;;1.97;;
21697;SDS011;11010;49.548;11.926;2022-10-16T08:03:35;6.90;;;1.90;;
21697;SDS011;11010;49.548;11.926;2022-10-16T08:06:02;7.13;;;1.90;;
21697;SDS011;11010;49.548;11.926;2022-10-16T08:08:30;7.53;;;1.80;;
21697;SDS011;11010;49.548;11.926;2022-10-16T08:10:58;6.80;;;1.90;;
21697;SDS011;11010;49.548;11.926;2022-10-16T08:13:25;6.20;;;1.80;;
21697;SDS011;11010;49.548;11.926;2022-10-16T08:15:53;6.50;;;1.80;;
21697;SDS011;11010;49.548;11.926;2022-10-16T08:18:21;6.40;;;1.93;;
21697;SDS011;11010;49.548;11.926;2022-10-16T08:20:54;6.40;;;1.60;;
21697;SDS011;11010;49.548;11.926;2022-10-16T08:23:22;6.93;;;1.90;;
21697;SDS011;11010;49.548;11.926;2022-10-16T08:25:49;7.00;;;1.80;;
21697;SDS011;11010;49.548;11.926;2022-10-16T08:28:16;7.07;;;1.70;;
21697;SDS011;11010;49.548;11.926;2022-10-16T08:30:44;7.10;;;1.70;;
21697;SDS011;11010;49.548;11.926;2022-10-16T08:33:12;6.80;;;1.80;;
21697;SDS011;11010;49.548;11.926;2022-10-16T08:35:40;6.50;;;1.80;;
21697;SDS011;11010;49.548;11.926;2022-10-16T08:38:08;5.77;;;1.63;;
21697;SDS011;11010;49.548;11.926;2022-10-16T08:40:36;6.03;;;1.60;;
21697;SDS011;11010;49.548;11.926;2022-10-16T08:46:04;5.10;;;1.63;;
21697;SDS011;11010;49.548;11.926;2022-10-16T08:48:40;7.07;;;1.63;;
21697;SDS011;11010;49.548;11.926;2022-10-16T08:51:11;7.67;;;1.80;;
21697;SDS011;11010;49.548;11.926;2022-10-16T08:53:44;7.70;;;2.00;;
21697;SDS011;11010;49.548;11.926;2022-10-16T08:56:13;8.77;;;1.70;;
21697;SDS011;11010;49.548;11.926;2022-10-16T08:58:41;8.00;;;1.60;;
21697;SDS011;11010;49.548;11.926;2022-10-16T09:01:12;5.83;;;1.67;;
21697;SDS011;11010;49.548;11.926;2022-10-16T09:06:10;7.17;;;1.60;;
21697;SDS011;11010;49.548;11.926;2022-10-16T09:08:43;7.20;;;1.60;;
21697;SDS011;11010;49.548;11.926;2022-10-16T09:16:39;6.90;;;1.50;;
21697;SDS011;11010;49.548;11.926;2022-10-16T09:21:40;6.23;;;1.47;;
21697;SDS011;11010;49.548;11.926;2022-10-16T09:24:12;6.10;;;1.50;;
21697;SDS011;11010;49.548;11.926;2022-10-16T09:26:42;5.97;;;1.50;;
21697;SDS011;11010;49.548;11.926;2022-10-16T09:29:13;6.43;;;1.60;;
21697;SDS011;11010;49.548;11.926;2022-10-16T09:31:41;5.53;;;1.60;;
21697;SDS011;11010;49.548;11.926;2022-10-16T09:34:29;8.87;;;1.60;;
21697;SDS011;11010;49.548;11.926;2022-10-16T09:36:58;10.20;;;1.70;;
21697;SDS011;11010;49.548;11.926;2022-10-16T09:39:26;7.70;;;1.77;;
21697;SDS011;11010;49.548;11.926;2022-10-16T09:41:53;7.07;;;1.70;;
21697;SDS011;11010;49.548;11.926;2022-10-16T09:44:23;6.67;;;1.60;;
21697;SDS011;11010;49.548;11.926;2022-10-16T09:47:05;6.63;;;1.60;;
21697;SDS011;11010;49.548;11.926;2022-10-16T09:49:33;5.90;;;1.70;;
21697;SDS011;11010;49.548;11.926;2022-10-16T09:52:19;5.90;;;1.57;;
21697;SDS011;11010;49.548;11.926;2022-10-16T09:55:00;5.60;;;1.70;;
21697;SDS011;11010;49.548;11.926;2022-10-16T09:57:28;6.03;;;1.50;;
21697;SDS011;11010;49.548;11.926;2022-10-16T09:59:57;5.57;;;1.60;;
21697;SDS011;11010;49.548;11.926;2022-10-16T10:02:29;6.63;;;1.70;;
21697;SDS011;11010;49.548;11.926;2022-10-16T10:04:57;5.43;;;1.38;;
21697;SDS011;11010;49.548;11.926;2022-10-16T10:07:35;5.97;;;1.50;;
21697;SDS011;11010;49.548;11.926;2022-10-16T10:10:05;6.30;;;1.67;;
21697;SDS011;11010;49.548;11.926;2022-10-16T10:12:33;6.68;;;1.60;;
21697;SDS011;11010;49.548;11.926;2022-10-16T10:15:07;7.32;;;1.55;;
21697;SDS011;11010;49.548;11.926;2022-10-16T10:17:47;9.57;;;1.70;;
21697;SDS011;11010;49.548;11.926;2022-10-16T10:20:31;8.00;;;1.65;;
21697;SDS011;11010;49.548;11.926;2022-10-16T10:23:01;6.47;;;1.67;;
21697;SDS011;11010;49.548;11.926;2022-10-16T10:35:55;7.35;;;1.60;;
21697;SDS011;11010;49.548;11.926;2022-10-16T10:38:27;5.82;;;1.60;;
21697;SDS011;11010;49.548;11.926;2022-10-16T10:46:02;5.72;;;1.52;;
21697;SDS011;11010;49.548;11.926;2022-10-16T10:51:18;7.10;;;1.65;;
21697;SDS011;11010;49.548;11.926;2022-10-16T11:04:49;5.68;;;1.65;;
21697;SDS011;11010;49.548;11.926;2022-10-16T11:07:24;7.03;;;1.63;;
21697;SDS011;11010;49.548;11.926;2022-10-16T11:10:02;8.80;;;1.83;;
21697;SDS011;11010;49.548;11.926;2022-10-16T11:12:35;6.70;;;1.83;;
21697;SDS011;11010;49.548;11.926;2022-10-16T11:18:12;7.53;;;1.70;;
21697;SDS011;11010;49.548;11.926;2022-10-16T11:20:40;7.78;;;1.80;;
21697;SDS011;11010;49.548;11.926;2022-10-16T11:23:11;7.80;;;1.90;;
21697;SDS011;11010;49.548;11.926;2022-10-16T11:25:41;9.25;;;2.13;;
21697;SDS011;11010;49.548;11.926;2022-10-16T11:30:58;7.05;;;1.90;;
21697;SDS011;11010;49.548;11.926;2022-10-16T11:33:34;9.30;;;1.80;;
21697;SDS011;11010;49.548;11.926;2022-10-16T11:41:00;5.47;;;1.73;;
21697;SDS011;11010;49.548;11.926;2022-10-16T11:43:32;5.38;;;1.48;;
21697;SDS011;11010;49.548;11.926;2022-10-16T11:46:08;8.57;;;1.80;;
21697;SDS011;11010;49.548;11.926;2022-10-16T11:48:39;5.75;;;1.60;;
21697;SDS011;11010;49.548;11.926;2022-10-16T11:51:14;6.43;;;1.70;;
21697;SDS011;11010;49.548;11.926;2022-10-16T11:53:54;6.97;;;1.88;;
21697;SDS011;11010;49.548;11.926;2022-10-16T11:56:24;7.10;;;1.90;;
21697;SDS011;11010;49.548;11.926;2022-10-16T12:01:26;6.57;;;1.80;;
21697;SDS011;11010;49.548;11.926;2022-10-16T12:08:59;7.43;;;1.73;;
21697;SDS011;11010;49.548;11.926;2022-10-16T12:14:04;7.22;;;1.50;;
21697;SDS011;11010;49.548;11.926;2022-10-16T12:16:32;5.47;;;1.45;;
21697;SDS011;11010;49.548;11.926;2022-10-16T12:19:18;7.43;;;1.85;;
21697;SDS011;11010;49.548;11.926;2022-10-16T12:21:46;6.88;;;1.80;;
21697;SDS011;11010;49.548;11.926;2022-10-16T12:24:20;5.90;;;1.60;;
21697;SDS011;11010;49.548;11.926;2022-10-16T12:26:48;8.70;;;1.77;;
21697;SDS011;11010;49.548;11.926;2022-10-16T12:31:51;5.85;;;1.75;;
21697;SDS011;11010;49.548;11.926;2022-10-16T12:34:32;6.82;;;1.50;;
21697;SDS011;11010;49.548;11.926;2022-10-16T12:39:38;7.72;;;1.80;;
21697;SDS011;11010;49.548;11.926;2022-10-16T12:42:19;7.85;;;1.63;;
21697;SDS011;11010;49.548;11.926;2022-10-16T12:44:47;6.32;;;1.60;;
21697;SDS011;11010;49.548;11.926;2022-10-16T12:47:22;6.05;;;1.52;;
21697;SDS011;11010;49.548;11.926;2022-10-16T12:49:53;7.32;;;1.50;;
21697;SDS011;11010;49.548;11.926;2022-10-16T12:52:31;6.88;;;1.70;;
21697;SDS011;11010;49.548;11.926;2022-10-16T12:55:01;6.28;;;1.77;;
21697;SDS011;11010;49.548;11.926;2022-10-16T13:05:09;5.82;;;1.50;;
21697;SDS011;11010;49.548;11.926;2022-10-16T13:16:18;6.60;;;1.60;;
21697;SDS011;11010;49.548;11.926;2022-10-16T13:21:39;5.57;;;1.50;;
21697;SDS011;11010;49.548;11.926;2022-10-16T13:26:44;5.82;;;1.50;;
21697;SDS011;11010;49.548;11.926;2022-10-16T13:29:14;5.00;;;1.40;;
21697;SDS011;11010;49.548;11.926;2022-10-16T13:31:42;6.55;;;1.70;;
21697;SDS011;11010;49.548;11.926;2022-10-16T13:34:12;6.65;;;1.20;;
21697;SDS011;11010;49.548;11.926;2022-10-16T13:36:46;5.10;;;1.20;;
21697;SDS011;11010;49.548;11.926;2022-10-16T13:39:23;5.10;;;1.30;;
21697;SDS011;11010;49.548;11.926;2022-10-16T13:41:58;7.45;;;1.40;;
21697;SDS011;11010;49.548;11.926;2022-10-16T13:44:52;5.03;;;1.20;;
21697;SDS011;11010;49.548;11.926;2022-10-16T13:47:21;4.82;;;1.13;;
21697;SDS011;11010;49.548;11.926;2022-10-16T13:52:28;3.65;;;1.20;;
21697;SDS011;11010;49.548;11.926;2022-10-16T13:54:55;6.80;;;1.30;;
21697;SDS011;11010;49.548;11.926;2022-10-16T13:57:27;6.22;;;1.30;;
21697;SDS011;11010;49.548;11.926;2022-10-16T13:59:54;6.90;;;1.25;;
21697;SDS011;11010;49.548;11.926;2022-10-16T14:02:26;5.28;;;1.10;;
21697;SDS011;11010;49.548;11.926;2022-10-16T14:04:55;3.80;;;1.10;;
21697;SDS011;11010;49.548;11.926;2022-10-16T14:07:33;5.57;;;1.27;;
21697;SDS011;11010;49.548;11.926;2022-10-16T14:10:03;5.32;;;1.23;;
21697;SDS011;11010;49.548;11.926;2022-10-16T14:12:31;5.68;;;1.20;;
21697;SDS011;11010;49.548;11.926;2022-10-16T14:15:00;4.40;;;1.20;;
21697;SDS011;11010;49.548;11.926;2022-10-16T14:17:31;4.25;;;1.20;;
21697;SDS011;11010;49.548;11.926;2022-10-16T14:20:02;5.00;;;1.20;;
21697;SDS011;11010;49.548;11.926;2022-10-16T14:22:36;6.57;;;1.50;;
21697;SDS011;11010;49.548;11.926;2022-10-16T14:25:19;7.45;;;1.67;;
21697;SDS011;11010;49.548;11.926;2022-10-16T14:30:28;6.82;;;1.45;;
21697;SDS011;11010;49.548;11.926;2022-10-16T14:32:59;8.43;;;1.80;;
21697;SDS011;11010;49.548;11.926;2022-10-16T14:37:57;5.78;;;1.52;;
21697;SDS011;11010;49.548;11.926;2022-10-16T14:40:32;5.25;;;1.50;;
21697;SDS011;11010;49.548;11.926;2022-10-16T14:43:00;7.60;;;1.70;;
21697;SDS011;11010;49.548;11.926;2022-10-16T14:45:29;7.35;;;1.58;;
21697;SDS011;11010;49.548;11.926;2022-10-16T14:48:01;7.63;;;1.83;;
21697;SDS011;11010;49.548;11.926;2022-10-16T14:50:29;9.52;;;1.80;;
21697;SDS011;11010;49.548;11.926;2022-10-16T14:52:57;6.38;;;1.63;;
21697;SDS011;11010;49.548;11.926;2022-10-16T14:55:25;6.18;;;1.50;;
21697;SDS011;11010;49.548;11.926;2022-10-16T14:57:53;6.47;;;1.73;;
21697;SDS011;11010;49.548;11.926;2022-10-16T15:00:26;7.00;;;1.70;;
21697;SDS011;11010;49.548;11.926;2022-10-16T15:02:53;7.40;;;1.58;;
21697;SDS011;11010;49.548;11.926;2022-10-16T15:05:22;6.05;;;1.70;;
21697;SDS011;11010;49.548;11.926;2022-10-16T15:07:50;6.97;;;1.58;;
21697;SDS011;11010;49.548;11.926;2022-10-16T15:10:21;6.38;;;1.48;;
21697;SDS011;11010;49.548;11.926;2022-10-16T15:12:49;5.85;;;1.60;;
21697;SDS011;11010;49.548;11.926;2022-10-16T15:17:51;4.80;;;1.60;;
21697;SDS011;11010;49.548;11.926;2022-10-16T15:20:20;6.00;;;1.40;;
21697;SDS011;11010;49.548;11.926;2022-10-16T15:22:47;6.95;;;1.75;;
21697;SDS011;11010;49.548;11.926;2022-10-16T15:28:01;7.55;;;1.65;;
21697;SDS011;11010;49.548;11.926;2022-10-16T15:30:29;4.80;;;1.40;;
21697;SDS011;11010;49.548;11.926;2022-10-16T15:32:57;6.22;;;1.40;;
21697;SDS011;11010;49.548;11.926;2022-10-16T15:35:24;6.00;;;1.50;;
21697;SDS011;11010;49.548;11.926;2022-10-16T15:37:52;5.15;;;1.60;;
21697;SDS011;11010;49.548;11.926;2022-10-16T15:40:19;7.88;;;1.77;;
21697;SDS011;11010;49.548;11.926;2022-10-16T15:42:47;7.70;;;1.50;;
21697;SDS011;11010;49.548;11.926;2022-10-16T15:45:15;9.65;;;1.88;;
21697;SDS011;11010;49.548;11.926;2022-10-16T15:47:43;10.85;;;1.80;;
21697;SDS011;11010;49.548;11.926;2022-10-16T15:50:14;6.40;;;1.50;;
21697;SDS011;11010;49.548;11.926;2022-10-16T15:52:42;7.10;;;1.60;;
21697;SDS011;11010;49.548;11.926;2022-10-16T15:55:11;4.88;;;1.35;;
21697;SDS011;11010;49.548;11.926;2022-10-16T15:57:38;8.57;;;1.50;;
21697;SDS011;11010;49.548;11.926;2022-10-16T16:00:10;5.00;;;1.45;;
21697;SDS011;11010;49.548;11.926;2022-10-16T16:02:38;7.18;;;1.52;;
21697;SDS011;11010;49.548;11.926;2022-10-16T16:05:06;6.53;;;1.60;;
21697;SDS011;11010;49.548;11.926;2022-10-16T16:07:35;6.03;;;1.58;;
21697;SDS011;11010;49.548;11.926;2022-10-16T16:10:03;7.57;;;1.35;;
21697;SDS011;11010;49.548;11.926;2022-10-16T16:12:32;4.93;;;1.30;;
21697;SDS011;11010;49.548;11.926;2022-10-16T16:14:59;8.23;;;1.60;;
21697;SDS011;11010;49.548;11.926;2022-10-16T16:17:31;7.28;;;1.58;;
21697;SDS011;11010;49.548;11.926;2022-10-16T16:19:59;7.00;;;1.70;;
21697;SDS011;11010;49.548;11.926;2022-10-16T16:22:27;6.50;;;1.55;;
21697;SDS011;11010;49.548;11.926;2022-10-16T16:24:55;5.57;;;1.40;;
21697;SDS011;11010;49.548;11.926;2022-10-16T16:27:22;7.13;;;1.58;;
21697;SDS011;11010;49.548;11.926;2022-10-16T16:29:52;6.68;;;1.60;;
21697;SDS011;11010;49.548;11.926;2022-10-16T16:32:21;5.68;;;1.52;;
21697;SDS011;11010;49.548;11.926;2022-10-16T16:34:49;6.22;;;1.52;;
21697;SDS011;11010;49.548;11.926;2022-10-16T16:37:16;4.82;;;1.38;;
21697;SDS011;11010;49.548;11.926;2022-10-16T16:39:44;5.70;;;1.40;;
21697;SDS011;11010;49.548;11.926;2022-10-16T16:42:11;5.72;;;1.50;;
21697;SDS011;11010;49.548;11.926;2022-10-16T16:44:38;7.30;;;1.70;;
21697;SDS011;11010;49.548;11.926;2022-10-16T16:47:06;6.00;;;1.40;;